sensor_id;sensor_type;location;lat;lon;timestamp;temperature;humidity
31597;DHT22;18201;50.978;7.034;2022-08-03T00:00:46;21.20;99.90
31597;DHT22;18201;50.978;7.034;2022-08-03T00:01:47;21.20;99.90
31597;DHT22;18201;50.978;7.034;2022-08-03T00:02:48;21.20;99.90
31597;DHT22;18201;50.978;7.034;2022-08-03T00:03:49;21.20;99.90
31597;DHT22;18201;50.978;7.034;2022-08-03T00:04:51;21.10;99.90
31597;DHT22;18201;50.978;7.034;2022-08-03T00:05:52;21.10;99.90
31597;DHT22;18201;50.978;7.034;2022-08-03T00:06:54;21.10;99.90
31597;DHT22;18201;50.978;7.034;2022-08-03T00:07:57;21.10;99.90
31597;DHT22;18201;50.978;7.034;2022-08-03T00:08:59;21.10;99.90
31597;DHT22;18201;50.978;7.034;2022-08-03T00:10:00;21.10;99.90
31597;DHT22;18201;50.978;7.034;2022-08-03T00:11:02;21.10;99.90
31597;DHT22;18201;50.978;7.034;2022-08-03T00:12:04;21.00;99.90
31597;DHT22;18201;50.978;7.034;2022-08-03T00:13:08;21.00;99.90
31597;DHT22;18201;50.978;7.034;2022-08-03T00:14:09;21.00;99.90
31597;DHT22;18201;50.978;7.034;2022-08-03T00:15:11;21.00;99.90
31597;DHT22;18201;50.978;7.034;2022-08-03T00:16:12;20.90;99.90
31597;DHT22;18201;50.978;7.034;2022-08-03T00:17:13;21.00;99.90
31597;DHT22;18201;50.978;7.034;2022-08-03T00:18:14;20.90;99.90
31597;DHT22;18201;50.978;7.034;2022-08-03T00:19:16;20.90;99.90
31597;DHT22;18201;50.978;7.034;2022-08-03T00:20:17;20.90;99.90
31597;DHT22;18201;50.978;7.034;2022-08-03T00:21:19;20.90;99.90
31597;DHT22;18201;50.978;7.034;2022-08-03T00:22:20;20.90;99.90
31597;DHT22;18201;50.978;7.034;2022-08-03T00:23:24;20.90;99.90
31597;DHT22;18201;50.978;7.034;2022-08-03T00:24:25;20.90;99.90
31597;DHT22;18201;50.978;7.034;2022-08-03T00:25:27;20.90;99.90
31597;DHT22;18201;50.978;7.034;2022-08-03T00:26:28;20.90;99.90
31597;DHT22;18201;50.978;7.034;2022-08-03T00:27:31;20.80;99.90
31597;DHT22;18201;50.978;7.034;2022-08-03T00:28:34;20.80;99.90
31597;DHT22;18201;50.978;7.034;2022-08-03T00:29:38;20.80;99.90
31597;DHT22;18201;50.978;7.034;2022-08-03T00:30:39;20.80;99.90
31597;DHT22;18201;50.978;7.034;2022-08-03T00:31:41;20.80;99.90
31597;DHT22;18201;50.978;7.034;2022-08-03T00:32:42;20.80;99.90
31597;DHT22;18201;50.978;7.034;2022-08-03T00:33:47;20.80;99.90
31597;DHT22;18201;50.978;7.034;2022-08-03T00:34:50;20.80;99.90
31597;DHT22;18201;50.978;7.034;2022-08-03T00:35:51;20.80;99.90
31597;DHT22;18201;50.978;7.034;2022-08-03T00:36:52;20.70;99.90
31597;DHT22;18201;50.978;7.034;2022-08-03T00:37:55;20.70;99.90
31597;DHT22;18201;50.978;7.034;2022-08-03T00:38:56;20.70;99.90
31597;DHT22;18201;50.978;7.034;2022-08-03T00:39:58;20.70;99.90
31597;DHT22;18201;50.978;7.034;2022-08-03T00:40:58;20.70;99.90
31597;DHT22;18201;50.978;7.034;2022-08-03T00:42:01;20.70;99.90
31597;DHT22;18201;50.978;7.034;2022-08-03T00:43:05;20.70;99.90
31597;DHT22;18201;50.978;7.034;2022-08-03T00:44:08;20.70;99.90
31597;DHT22;18201;50.978;7.034;2022-08-03T00:45:09;20.70;99.90
31597;DHT22;18201;50.978;7.034;2022-08-03T00:46:11;20.60;99.90
31597;DHT22;18201;50.978;7.034;2022-08-03T00:47:13;20.70;99.90
31597;DHT22;18201;50.978;7.034;2022-08-03T00:48:14;20.60;99.90
31597;DHT22;18201;50.978;7.034;2022-08-03T00:49:16;20.60;99.90
31597;DHT22;18201;50.978;7.034;2022-08-03T00:50:20;20.60;99.90
31597;DHT22;18201;50.978;7.034;2022-08-03T00:51:23;20.60;99.90
31597;DHT22;18201;50.978;7.034;2022-08-03T00:52:24;20.60;99.90
31597;DHT22;18201;50.978;7.034;2022-08-03T00:53:27;20.60;99.90
31597;DHT22;18201;50.978;7.034;2022-08-03T00:54:28;20.50;99.90
31597;DHT22;18201;50.978;7.034;2022-08-03T00:55:30;20.50;99.90
31597;DHT22;18201;50.978;7.034;2022-08-03T00:56:31;20.50;99.90
31597;DHT22;18201;50.978;7.034;2022-08-03T00:57:33;20.50;99.90
31597;DHT22;18201;50.978;7.034;2022-08-03T00:58:34;20.40;99.90
31597;DHT22;18201;50.978;7.034;2022-08-03T00:59:38;20.40;99.90
31597;DHT22;18201;50.978;7.034;2022-08-03T01:00:39;20.30;99.90
31597;DHT22;18201;50.978;7.034;2022-08-03T01:01:41;20.30;99.90
31597;DHT22;18201;50.978;7.034;2022-08-03T01:02:43;20.40;99.90
31597;DHT22;18201;50.978;7.034;2022-08-03T01:03:44;20.30;99.90
31597;DHT22;18201;50.978;7.034;2022-08-03T01:04:45;20.30;99.90
31597;DHT22;18201;50.978;7.034;2022-08-03T01:05:52;20.20;99.90
31597;DHT22;18201;50.978;7.034;2022-08-03T01:07:00;20.30;99.90
31597;DHT22;18201;50.978;7.034;2022-08-03T01:08:07;20.30;99.90
31597;DHT22;18201;50.978;7.034;2022-08-03T01:09:14;20.30;99.90
31597;DHT22;18201;50.978;7.034;2022-08-03T01:10:25;20.30;99.90
31597;DHT22;18201;50.978;7.034;2022-08-03T01:11:34;20.30;99.90
31597;DHT22;18201;50.978;7.034;2022-08-03T01:12:41;20.30;99.90
31597;DHT22;18201;50.978;7.034;2022-08-03T01:13:52;20.30;99.90
31597;DHT22;18201;50.978;7.034;2022-08-03T01:15:02;20.30;99.90
31597;DHT22;18201;50.978;7.034;2022-08-03T01:16:11;20.30;99.90
31597;DHT22;18201;50.978;7.034;2022-08-03T01:17:20;20.30;99.90
31597;DHT22;18201;50.978;7.034;2022-08-03T01:18:27;20.30;99.90
31597;DHT22;18201;50.978;7.034;2022-08-03T01:19:39;20.20;99.90
31597;DHT22;18201;50.978;7.034;2022-08-03T01:20:44;20.30;99.90
31597;DHT22;18201;50.978;7.034;2022-08-03T01:21:57;20.20;99.90
31597;DHT22;18201;50.978;7.034;2022-08-03T01:23:31;20.20;99.90
31597;DHT22;18201;50.978;7.034;2022-08-03T01:24:43;20.20;99.90
31597;DHT22;18201;50.978;7.034;2022-08-03T01:26:02;20.20;99.90
31597;DHT22;18201;50.978;7.034;2022-08-03T01:27:09;20.20;99.90
31597;DHT22;18201;50.978;7.034;2022-08-03T01:28:24;20.20;99.90
31597;DHT22;18201;50.978;7.034;2022-08-03T01:29:54;20.20;99.90
31597;DHT22;18201;50.978;7.034;2022-08-03T01:31:02;20.20;99.90
31597;DHT22;18201;50.978;7.034;2022-08-03T01:32:10;20.20;99.90
31597;DHT22;18201;50.978;7.034;2022-08-03T01:33:16;20.20;99.90
31597;DHT22;18201;50.978;7.034;2022-08-03T01:34:19;20.10;99.90
31597;DHT22;18201;50.978;7.034;2022-08-03T01:35:26;20.00;99.90
31597;DHT22;18201;50.978;7.034;2022-08-03T01:36:32;20.00;99.90
31597;DHT22;18201;50.978;7.034;2022-08-03T01:37:38;20.00;99.90
31597;DHT22;18201;50.978;7.034;2022-08-03T01:38:43;20.00;99.90
31597;DHT22;18201;50.978;7.034;2022-08-03T01:39:46;20.00;99.90
31597;DHT22;18201;50.978;7.034;2022-08-03T01:40:51;20.00;99.90
31597;DHT22;18201;50.978;7.034;2022-08-03T01:41:57;20.00;99.90
31597;DHT22;18201;50.978;7.034;2022-08-03T01:43:01;20.00;99.90
31597;DHT22;18201;50.978;7.034;2022-08-03T01:44:06;20.00;99.90
31597;DHT22;18201;50.978;7.034;2022-08-03T01:45:12;20.00;99.90
31597;DHT22;18201;50.978;7.034;2022-08-03T01:46:15;19.90;99.90
31597;DHT22;18201;50.978;7.034;2022-08-03T01:47:19;20.00;99.90
31597;DHT22;18201;50.978;7.034;2022-08-03T01:48:21;19.90;99.90
31597;DHT22;18201;50.978;7.034;2022-08-03T01:49:24;19.90;99.90
31597;DHT22;18201;50.978;7.034;2022-08-03T01:50:27;19.90;99.90
31597;DHT22;18201;50.978;7.034;2022-08-03T01:51:30;19.90;99.90
31597;DHT22;18201;50.978;7.034;2022-08-03T01:52:32;19.80;99.90
31597;DHT22;18201;50.978;7.034;2022-08-03T01:53:35;19.80;99.90
31597;DHT22;18201;50.978;7.034;2022-08-03T01:54:45;19.80;99.90
31597;DHT22;18201;50.978;7.034;2022-08-03T01:55:52;19.80;99.90
31597;DHT22;18201;50.978;7.034;2022-08-03T01:56:56;19.80;99.90
31597;DHT22;18201;50.978;7.034;2022-08-03T01:57:59;19.80;99.90
31597;DHT22;18201;50.978;7.034;2022-08-03T01:59:02;19.80;99.90
31597;DHT22;18201;50.978;7.034;2022-08-03T02:00:05;19.80;99.90
31597;DHT22;18201;50.978;7.034;2022-08-03T02:01:11;19.80;99.90
31597;DHT22;18201;50.978;7.034;2022-08-03T02:02:15;19.70;99.90
31597;DHT22;18201;50.978;7.034;2022-08-03T02:03:17;19.70;99.90
31597;DHT22;18201;50.978;7.034;2022-08-03T02:04:22;19.80;99.90
31597;DHT22;18201;50.978;7.034;2022-08-03T02:05:23;19.80;99.90
31597;DHT22;18201;50.978;7.034;2022-08-03T02:06:29;19.70;99.90
31597;DHT22;18201;50.978;7.034;2022-08-03T02:07:32;19.70;99.90
31597;DHT22;18201;50.978;7.034;2022-08-03T02:08:35;19.70;99.90
31597;DHT22;18201;50.978;7.034;2022-08-03T02:09:38;19.70;99.90
31597;DHT22;18201;50.978;7.034;2022-08-03T02:10:42;19.60;99.90
31597;DHT22;18201;50.978;7.034;2022-08-03T02:11:46;19.70;99.90
31597;DHT22;18201;50.978;7.034;2022-08-03T02:12:48;19.70;99.90
31597;DHT22;18201;50.978;7.034;2022-08-03T02:13:50;19.60;99.90
31597;DHT22;18201;50.978;7.034;2022-08-03T02:14:53;19.60;99.90
31597;DHT22;18201;50.978;7.034;2022-08-03T02:15:56;19.60;99.90
31597;DHT22;18201;50.978;7.034;2022-08-03T02:17:00;19.60;99.90
31597;DHT22;18201;50.978;7.034;2022-08-03T02:18:04;19.60;99.90
31597;DHT22;18201;50.978;7.034;2022-08-03T02:19:09;19.60;99.90
31597;DHT22;18201;50.978;7.034;2022-08-03T02:20:12;19.50;99.90
31597;DHT22;18201;50.978;7.034;2022-08-03T02:21:14;19.50;99.90
31597;DHT22;18201;50.978;7.034;2022-08-03T02:22:16;19.50;99.90
31597;DHT22;18201;50.978;7.034;2022-08-03T02:23:18;19.50;99.90
31597;DHT22;18201;50.978;7.034;2022-08-03T02:24:20;19.50;99.90
31597;DHT22;18201;50.978;7.034;2022-08-03T02:25:29;19.50;99.90
31597;DHT22;18201;50.978;7.034;2022-08-03T02:26:34;19.40;99.90
31597;DHT22;18201;50.978;7.034;2022-08-03T02:27:40;19.50;99.90
31597;DHT22;18201;50.978;7.034;2022-08-03T02:28:46;19.40;99.90
31597;DHT22;18201;50.978;7.034;2022-08-03T02:29:52;19.50;99.90
31597;DHT22;18201;50.978;7.034;2022-08-03T02:30:55;19.50;99.90
31597;DHT22;18201;50.978;7.034;2022-08-03T02:32:00;19.40;99.90
31597;DHT22;18201;50.978;7.034;2022-08-03T02:33:06;19.40;99.90
31597;DHT22;18201;50.978;7.034;2022-08-03T02:34:11;19.40;99.90
31597;DHT22;18201;50.978;7.034;2022-08-03T02:35:16;19.40;99.90
31597;DHT22;18201;50.978;7.034;2022-08-03T02:36:22;19.40;99.90
31597;DHT22;18201;50.978;7.034;2022-08-03T02:37:29;19.40;99.90
31597;DHT22;18201;50.978;7.034;2022-08-03T02:38:33;19.40;99.90
31597;DHT22;18201;50.978;7.034;2022-08-03T02:39:36;19.40;99.90
31597;DHT22;18201;50.978;7.034;2022-08-03T02:40:39;19.40;99.90
31597;DHT22;18201;50.978;7.034;2022-08-03T02:41:45;19.40;99.90
31597;DHT22;18201;50.978;7.034;2022-08-03T02:42:50;19.30;99.90
31597;DHT22;18201;50.978;7.034;2022-08-03T02:43:54;19.30;99.90
31597;DHT22;18201;50.978;7.034;2022-08-03T02:44:58;19.30;99.90
31597;DHT22;18201;50.978;7.034;2022-08-03T02:46:01;19.30;99.90
31597;DHT22;18201;50.978;7.034;2022-08-03T02:47:06;19.30;99.90
31597;DHT22;18201;50.978;7.034;2022-08-03T02:48:10;19.30;99.90
31597;DHT22;18201;50.978;7.034;2022-08-03T02:49:16;19.30;99.90
31597;DHT22;18201;50.978;7.034;2022-08-03T02:50:21;19.20;99.90
31597;DHT22;18201;50.978;7.034;2022-08-03T02:51:23;19.20;99.90
31597;DHT22;18201;50.978;7.034;2022-08-03T02:52:27;19.20;99.90
31597;DHT22;18201;50.978;7.034;2022-08-03T02:53:29;19.20;99.90
31597;DHT22;18201;50.978;7.034;2022-08-03T02:54:33;19.10;99.90
31597;DHT22;18201;50.978;7.034;2022-08-03T02:55:35;19.10;99.90
31597;DHT22;18201;50.978;7.034;2022-08-03T02:56:38;19.10;99.90
31597;DHT22;18201;50.978;7.034;2022-08-03T02:57:45;19.00;99.90
31597;DHT22;18201;50.978;7.034;2022-08-03T02:58:48;19.10;99.90
31597;DHT22;18201;50.978;7.034;2022-08-03T02:59:50;19.00;99.90
31597;DHT22;18201;50.978;7.034;2022-08-03T03:00:53;19.00;99.90
31597;DHT22;18201;50.978;7.034;2022-08-03T03:01:55;19.00;99.90
31597;DHT22;18201;50.978;7.034;2022-08-03T03:02:59;19.00;99.90
31597;DHT22;18201;50.978;7.034;2022-08-03T03:04:01;19.00;99.90
31597;DHT22;18201;50.978;7.034;2022-08-03T03:05:04;19.00;99.90
31597;DHT22;18201;50.978;7.034;2022-08-03T03:06:06;19.00;99.90
31597;DHT22;18201;50.978;7.034;2022-08-03T03:07:10;18.90;99.90
31597;DHT22;18201;50.978;7.034;2022-08-03T03:08:13;19.00;99.90
31597;DHT22;18201;50.978;7.034;2022-08-03T03:09:21;19.00;99.90
31597;DHT22;18201;50.978;7.034;2022-08-03T03:10:23;19.00;99.90
31597;DHT22;18201;50.978;7.034;2022-08-03T03:11:25;19.00;99.90
31597;DHT22;18201;50.978;7.034;2022-08-03T03:12:27;19.00;99.90
31597;DHT22;18201;50.978;7.034;2022-08-03T03:13:30;19.00;99.90
31597;DHT22;18201;50.978;7.034;2022-08-03T03:14:32;18.90;99.90
31597;DHT22;18201;50.978;7.034;2022-08-03T03:15:35;19.00;99.90
31597;DHT22;18201;50.978;7.034;2022-08-03T03:16:39;19.00;99.90
31597;DHT22;18201;50.978;7.034;2022-08-03T03:17:42;18.90;99.90
31597;DHT22;18201;50.978;7.034;2022-08-03T03:18:46;18.90;99.90
31597;DHT22;18201;50.978;7.034;2022-08-03T03:19:50;18.90;99.90
31597;DHT22;18201;50.978;7.034;2022-08-03T03:20:52;18.90;99.90
31597;DHT22;18201;50.978;7.034;2022-08-03T03:21:54;18.90;99.90
31597;DHT22;18201;50.978;7.034;2022-08-03T03:22:58;18.90;99.90
31597;DHT22;18201;50.978;7.034;2022-08-03T03:24:00;18.90;99.90
31597;DHT22;18201;50.978;7.034;2022-08-03T03:25:05;18.80;99.90
31597;DHT22;18201;50.978;7.034;2022-08-03T03:26:07;18.90;99.90
31597;DHT22;18201;50.978;7.034;2022-08-03T03:27:09;18.80;99.90
31597;DHT22;18201;50.978;7.034;2022-08-03T03:28:10;18.80;99.90
31597;DHT22;18201;50.978;7.034;2022-08-03T03:29:12;18.70;99.90
31597;DHT22;18201;50.978;7.034;2022-08-03T03:30:16;18.70;99.90
31597;DHT22;18201;50.978;7.034;2022-08-03T03:31:18;18.70;99.90
31597;DHT22;18201;50.978;7.034;2022-08-03T03:32:19;18.70;99.90
31597;DHT22;18201;50.978;7.034;2022-08-03T03:33:21;18.70;99.90
31597;DHT22;18201;50.978;7.034;2022-08-03T03:34:23;18.70;99.90
31597;DHT22;18201;50.978;7.034;2022-08-03T03:35:26;18.70;99.90
31597;DHT22;18201;50.978;7.034;2022-08-03T03:36:27;18.70;99.90
31597;DHT22;18201;50.978;7.034;2022-08-03T03:37:29;18.70;99.90
31597;DHT22;18201;50.978;7.034;2022-08-03T03:38:31;18.70;99.90
31597;DHT22;18201;50.978;7.034;2022-08-03T03:39:33;18.60;99.90
31597;DHT22;18201;50.978;7.034;2022-08-03T03:40:36;18.70;99.90
31597;DHT22;18201;50.978;7.034;2022-08-03T03:41:38;18.70;99.90
31597;DHT22;18201;50.978;7.034;2022-08-03T03:42:40;18.70;99.90
31597;DHT22;18201;50.978;7.034;2022-08-03T03:43:42;18.70;99.90
31597;DHT22;18201;50.978;7.034;2022-08-03T03:44:43;18.70;99.90
31597;DHT22;18201;50.978;7.034;2022-08-03T03:45:46;18.70;99.90
31597;DHT22;18201;50.978;7.034;2022-08-03T03:46:47;18.70;99.90
31597;DHT22;18201;50.978;7.034;2022-08-03T03:47:49;18.70;99.90
31597;DHT22;18201;50.978;7.034;2022-08-03T03:48:50;18.60;99.90
31597;DHT22;18201;50.978;7.034;2022-08-03T03:49:53;18.60;99.90
31597;DHT22;18201;50.978;7.034;2022-08-03T03:50:55;18.50;99.90
31597;DHT22;18201;50.978;7.034;2022-08-03T03:51:58;18.50;99.90
31597;DHT22;18201;50.978;7.034;2022-08-03T03:53:00;18.50;99.90
31597;DHT22;18201;50.978;7.034;2022-08-03T03:54:03;18.50;99.90
31597;DHT22;18201;50.978;7.034;2022-08-03T03:55:06;18.50;99.90
31597;DHT22;18201;50.978;7.034;2022-08-03T03:56:08;18.50;99.90
31597;DHT22;18201;50.978;7.034;2022-08-03T03:57:10;18.60;99.90
31597;DHT22;18201;50.978;7.034;2022-08-03T03:58:12;18.60;99.90
31597;DHT22;18201;50.978;7.034;2022-08-03T03:59:13;18.60;99.90
31597;DHT22;18201;50.978;7.034;2022-08-03T04:00:16;18.50;99.90
31597;DHT22;18201;50.978;7.034;2022-08-03T04:01:18;18.50;99.90
31597;DHT22;18201;50.978;7.034;2022-08-03T04:02:20;18.50;99.90
31597;DHT22;18201;50.978;7.034;2022-08-03T04:03:23;18.40;99.90
31597;DHT22;18201;50.978;7.034;2022-08-03T04:04:25;18.40;99.90
31597;DHT22;18201;50.978;7.034;2022-08-03T04:05:45;18.30;99.90
31597;DHT22;18201;50.978;7.034;2022-08-03T04:07:05;18.30;99.90
31597;DHT22;18201;50.978;7.034;2022-08-03T04:08:25;18.30;99.90
31597;DHT22;18201;50.978;7.034;2022-08-03T04:09:44;18.30;99.90
31597;DHT22;18201;50.978;7.034;2022-08-03T04:11:10;18.40;99.90
31597;DHT22;18201;50.978;7.034;2022-08-03T04:12:13;18.40;99.90
31597;DHT22;18201;50.978;7.034;2022-08-03T04:13:15;18.40;99.90
31597;DHT22;18201;50.978;7.034;2022-08-03T04:14:19;18.40;99.90
31597;DHT22;18201;50.978;7.034;2022-08-03T04:15:24;18.50;99.90
31597;DHT22;18201;50.978;7.034;2022-08-03T04:16:30;18.50;99.90
31597;DHT22;18201;50.978;7.034;2022-08-03T04:17:33;18.50;99.90
31597;DHT22;18201;50.978;7.034;2022-08-03T04:18:36;18.50;99.90
31597;DHT22;18201;50.978;7.034;2022-08-03T04:19:42;18.50;99.90
31597;DHT22;18201;50.978;7.034;2022-08-03T04:20:47;18.50;99.90
31597;DHT22;18201;50.978;7.034;2022-08-03T04:21:51;18.50;99.90
31597;DHT22;18201;50.978;7.034;2022-08-03T04:22:53;18.40;99.90
31597;DHT22;18201;50.978;7.034;2022-08-03T04:24:00;18.50;99.90
31597;DHT22;18201;50.978;7.034;2022-08-03T04:25:06;18.50;99.90
31597;DHT22;18201;50.978;7.034;2022-08-03T04:26:10;18.50;99.90
31597;DHT22;18201;50.978;7.034;2022-08-03T04:27:15;18.60;99.90
31597;DHT22;18201;50.978;7.034;2022-08-03T04:28:18;18.60;99.90
31597;DHT22;18201;50.978;7.034;2022-08-03T04:29:21;18.50;99.90
31597;DHT22;18201;50.978;7.034;2022-08-03T04:30:25;18.50;99.90
31597;DHT22;18201;50.978;7.034;2022-08-03T04:31:29;18.60;99.90
31597;DHT22;18201;50.978;7.034;2022-08-03T04:32:30;18.60;99.90
31597;DHT22;18201;50.978;7.034;2022-08-03T04:33:34;18.60;99.90
31597;DHT22;18201;50.978;7.034;2022-08-03T04:34:36;18.50;99.90
31597;DHT22;18201;50.978;7.034;2022-08-03T04:35:39;18.60;99.90
31597;DHT22;18201;50.978;7.034;2022-08-03T04:36:47;18.60;99.90
31597;DHT22;18201;50.978;7.034;2022-08-03T04:37:51;18.50;99.90
31597;DHT22;18201;50.978;7.034;2022-08-03T04:38:58;18.60;99.90
31597;DHT22;18201;50.978;7.034;2022-08-03T04:40:02;18.60;99.90
31597;DHT22;18201;50.978;7.034;2022-08-03T04:41:06;18.60;99.90
31597;DHT22;18201;50.978;7.034;2022-08-03T04:42:10;18.60;99.90
31597;DHT22;18201;50.978;7.034;2022-08-03T04:43:16;18.60;99.90
31597;DHT22;18201;50.978;7.034;2022-08-03T04:44:20;18.60;99.90
31597;DHT22;18201;50.978;7.034;2022-08-03T04:45:23;18.60;99.90
31597;DHT22;18201;50.978;7.034;2022-08-03T04:46:28;18.50;99.90
31597;DHT22;18201;50.978;7.034;2022-08-03T04:47:31;18.60;99.90
31597;DHT22;18201;50.978;7.034;2022-08-03T04:48:33;18.60;99.90
31597;DHT22;18201;50.978;7.034;2022-08-03T04:49:36;18.50;99.90
31597;DHT22;18201;50.978;7.034;2022-08-03T04:50:39;18.60;99.90
31597;DHT22;18201;50.978;7.034;2022-08-03T04:51:40;18.60;99.90
31597;DHT22;18201;50.978;7.034;2022-08-03T04:52:44;18.60;99.90
31597;DHT22;18201;50.978;7.034;2022-08-03T04:53:45;18.60;99.90
31597;DHT22;18201;50.978;7.034;2022-08-03T04:54:47;18.60;99.90
31597;DHT22;18201;50.978;7.034;2022-08-03T04:55:49;18.60;99.90
31597;DHT22;18201;50.978;7.034;2022-08-03T04:56:51;18.60;99.90
31597;DHT22;18201;50.978;7.034;2022-08-03T04:57:52;18.60;99.90
31597;DHT22;18201;50.978;7.034;2022-08-03T04:58:54;18.60;99.90
31597;DHT22;18201;50.978;7.034;2022-08-03T04:59:55;18.60;99.90
31597;DHT22;18201;50.978;7.034;2022-08-03T05:00:57;18.60;99.90
31597;DHT22;18201;50.978;7.034;2022-08-03T05:01:58;18.60;99.90
31597;DHT22;18201;50.978;7.034;2022-08-03T05:02:59;18.60;99.90
31597;DHT22;18201;50.978;7.034;2022-08-03T05:04:00;18.60;99.90
31597;DHT22;18201;50.978;7.034;2022-08-03T05:05:04;18.60;99.90
31597;DHT22;18201;50.978;7.034;2022-08-03T05:06:05;18.60;99.90
31597;DHT22;18201;50.978;7.034;2022-08-03T05:07:07;18.60;99.90
31597;DHT22;18201;50.978;7.034;2022-08-03T05:08:10;18.60;99.90
31597;DHT22;18201;50.978;7.034;2022-08-03T05:09:11;18.60;99.90
31597;DHT22;18201;50.978;7.034;2022-08-03T05:10:13;18.60;99.90
31597;DHT22;18201;50.978;7.034;2022-08-03T05:11:15;18.60;99.90
31597;DHT22;18201;50.978;7.034;2022-08-03T05:12:16;18.60;99.90
31597;DHT22;18201;50.978;7.034;2022-08-03T05:13:18;18.60;99.90
31597;DHT22;18201;50.978;7.034;2022-08-03T05:14:21;18.70;99.90
31597;DHT22;18201;50.978;7.034;2022-08-03T05:15:23;18.70;99.90
31597;DHT22;18201;50.978;7.034;2022-08-03T05:16:24;18.70;99.90
31597;DHT22;18201;50.978;7.034;2022-08-03T05:17:26;18.70;99.90
31597;DHT22;18201;50.978;7.034;2022-08-03T05:18:27;18.70;99.90
31597;DHT22;18201;50.978;7.034;2022-08-03T05:19:29;18.70;99.90
31597;DHT22;18201;50.978;7.034;2022-08-03T05:20:30;18.70;99.90
31597;DHT22;18201;50.978;7.034;2022-08-03T05:21:33;18.70;99.90
31597;DHT22;18201;50.978;7.034;2022-08-03T05:22:34;18.70;99.90
31597;DHT22;18201;50.978;7.034;2022-08-03T05:23:37;18.70;99.90
31597;DHT22;18201;50.978;7.034;2022-08-03T05:24:38;18.70;99.90
31597;DHT22;18201;50.978;7.034;2022-08-03T05:25:40;18.70;99.90
31597;DHT22;18201;50.978;7.034;2022-08-03T05:26:41;18.70;99.90
31597;DHT22;18201;50.978;7.034;2022-08-03T05:27:43;18.70;99.90
31597;DHT22;18201;50.978;7.034;2022-08-03T05:28:44;18.80;99.90
31597;DHT22;18201;50.978;7.034;2022-08-03T05:29:49;18.80;99.90
31597;DHT22;18201;50.978;7.034;2022-08-03T05:30:51;18.80;99.90
31597;DHT22;18201;50.978;7.034;2022-08-03T05:31:53;18.80;99.90
31597;DHT22;18201;50.978;7.034;2022-08-03T05:32:55;18.80;99.90
31597;DHT22;18201;50.978;7.034;2022-08-03T05:33:56;18.80;99.90
31597;DHT22;18201;50.978;7.034;2022-08-03T05:34:59;18.90;99.90
31597;DHT22;18201;50.978;7.034;2022-08-03T05:36:01;18.80;99.90
31597;DHT22;18201;50.978;7.034;2022-08-03T05:37:02;18.80;99.90
31597;DHT22;18201;50.978;7.034;2022-08-03T05:38:05;18.90;99.90
31597;DHT22;18201;50.978;7.034;2022-08-03T05:39:07;18.90;99.90
31597;DHT22;18201;50.978;7.034;2022-08-03T05:40:10;18.90;99.90
31597;DHT22;18201;50.978;7.034;2022-08-03T05:41:11;19.00;99.90
31597;DHT22;18201;50.978;7.034;2022-08-03T05:42:14;18.90;99.90
31597;DHT22;18201;50.978;7.034;2022-08-03T05:43:15;19.00;99.90
31597;DHT22;18201;50.978;7.034;2022-08-03T05:44:17;19.00;99.90
31597;DHT22;18201;50.978;7.034;2022-08-03T05:45:18;19.00;99.90
31597;DHT22;18201;50.978;7.034;2022-08-03T05:46:20;19.00;99.90
31597;DHT22;18201;50.978;7.034;2022-08-03T05:47:21;19.00;99.90
31597;DHT22;18201;50.978;7.034;2022-08-03T05:48:23;19.00;99.90
31597;DHT22;18201;50.978;7.034;2022-08-03T05:49:24;19.00;99.90
31597;DHT22;18201;50.978;7.034;2022-08-03T05:50:26;19.10;99.90
31597;DHT22;18201;50.978;7.034;2022-08-03T05:51:27;19.10;99.90
31597;DHT22;18201;50.978;7.034;2022-08-03T05:52:29;19.10;99.90
31597;DHT22;18201;50.978;7.034;2022-08-03T05:53:32;19.10;99.90
31597;DHT22;18201;50.978;7.034;2022-08-03T05:54:35;19.10;99.90
31597;DHT22;18201;50.978;7.034;2022-08-03T05:55:36;19.20;99.90
31597;DHT22;18201;50.978;7.034;2022-08-03T05:56:38;19.20;99.90
31597;DHT22;18201;50.978;7.034;2022-08-03T05:57:40;19.20;99.90
31597;DHT22;18201;50.978;7.034;2022-08-03T05:58:44;19.20;99.90
31597;DHT22;18201;50.978;7.034;2022-08-03T05:59:45;19.20;99.90
31597;DHT22;18201;50.978;7.034;2022-08-03T06:00:47;19.20;99.90
31597;DHT22;18201;50.978;7.034;2022-08-03T06:01:48;19.20;99.90
31597;DHT22;18201;50.978;7.034;2022-08-03T06:02:50;19.30;99.90
31597;DHT22;18201;50.978;7.034;2022-08-03T06:03:51;19.30;99.90
31597;DHT22;18201;50.978;7.034;2022-08-03T06:04:53;19.30;99.90
31597;DHT22;18201;50.978;7.034;2022-08-03T06:05:54;19.40;99.90
31597;DHT22;18201;50.978;7.034;2022-08-03T06:06:56;19.40;99.90
31597;DHT22;18201;50.978;7.034;2022-08-03T06:07:58;19.40;99.90
31597;DHT22;18201;50.978;7.034;2022-08-03T06:08:59;19.50;99.90
31597;DHT22;18201;50.978;7.034;2022-08-03T06:10:02;19.50;99.90
31597;DHT22;18201;50.978;7.034;2022-08-03T06:11:04;19.50;99.90
31597;DHT22;18201;50.978;7.034;2022-08-03T06:12:06;19.60;99.90
31597;DHT22;18201;50.978;7.034;2022-08-03T06:13:07;19.60;99.90
31597;DHT22;18201;50.978;7.034;2022-08-03T06:14:09;19.70;99.90
31597;DHT22;18201;50.978;7.034;2022-08-03T06:15:11;19.70;99.90
31597;DHT22;18201;50.978;7.034;2022-08-03T06:16:14;19.70;99.90
31597;DHT22;18201;50.978;7.034;2022-08-03T06:17:15;19.70;99.90
31597;DHT22;18201;50.978;7.034;2022-08-03T06:18:16;19.70;99.90
31597;DHT22;18201;50.978;7.034;2022-08-03T06:19:18;19.80;99.90
31597;DHT22;18201;50.978;7.034;2022-08-03T06:20:20;19.80;99.90
31597;DHT22;18201;50.978;7.034;2022-08-03T06:21:24;19.80;99.90
31597;DHT22;18201;50.978;7.034;2022-08-03T06:22:26;19.90;99.90
31597;DHT22;18201;50.978;7.034;2022-08-03T06:23:27;20.00;99.90
31597;DHT22;18201;50.978;7.034;2022-08-03T06:24:29;20.00;99.90
31597;DHT22;18201;50.978;7.034;2022-08-03T06:25:32;20.10;99.90
31597;DHT22;18201;50.978;7.034;2022-08-03T06:26:36;20.10;99.90
31597;DHT22;18201;50.978;7.034;2022-08-03T06:27:39;20.20;99.90
31597;DHT22;18201;50.978;7.034;2022-08-03T06:28:40;20.20;99.90
31597;DHT22;18201;50.978;7.034;2022-08-03T06:29:42;20.20;99.90
31597;DHT22;18201;50.978;7.034;2022-08-03T06:30:43;20.20;99.90
31597;DHT22;18201;50.978;7.034;2022-08-03T06:31:45;20.30;99.90
31597;DHT22;18201;50.978;7.034;2022-08-03T06:32:47;20.30;99.90
31597;DHT22;18201;50.978;7.034;2022-08-03T06:33:49;20.30;99.90
31597;DHT22;18201;50.978;7.034;2022-08-03T06:34:52;20.40;99.90
31597;DHT22;18201;50.978;7.034;2022-08-03T06:35:53;20.40;99.90
31597;DHT22;18201;50.978;7.034;2022-08-03T06:36:56;20.40;99.90
31597;DHT22;18201;50.978;7.034;2022-08-03T06:38:00;20.40;99.90
31597;DHT22;18201;50.978;7.034;2022-08-03T06:39:03;20.50;99.90
31597;DHT22;18201;50.978;7.034;2022-08-03T06:40:05;20.50;99.90
31597;DHT22;18201;50.978;7.034;2022-08-03T06:41:09;20.50;99.90